Impacts METAR Board INFO
IDs:

KCVG - Cincinnati Intl, KY, US

Updated at: 1636 UTC 18 Dec 2017
Potential Impact None Slight Moderate High
Time18/04Z 18/05Z 18/06Z 18/07Z 18/08Z 18/09Z 18/10Z 18/11Z 18/12Z 18/13Z 18/14Z 18/15Z 18/16Z
VIS10 9 8 6 4 0.13 0.13 1 1 0.5 0.13 1 2
CIG12 8 19 5 4 2 2 3 3 3 3 4 6
CoverOVCOVCOVCOVCOVCOVCOVCOVCOVCOVCOVCOVCOVC
FltCatMVFRIFRMVFRIFRLIFRLIFRLIFRLIFRLIFRLIFRLIFRLIFRIFR
WX-----DZ-DZ BRBRBRBRBR-RA BR-DZ BR-DZ BRBRBR
WDir200210200190190200190200220210220210220
WSpd6 7 7 6 6 5 5 7 7 8 6 7 7
WGst-- -- -- -- -- -- -- -- -- -- -- -- --
Raw hourly METARs
KCVG 180352Z 20006KT 10SM BKN012 OVC029 05/04 A3011 RMK AO2 SLP199 T00500039
KCVG 180452Z 21007KT 9SM OVC008 05/04 A3011 RMK AO2 SLP196 T00500039 400830022
KCVG 180603Z 20007KT 8SM -DZ SCT007 OVC019 05/04 A3009 RMK AO2 P0000 T00500044
KCVG 180702Z 19006KT 6SM -DZ BR BKN005 OVC016 05/04 A3008 RMK AO2 P0000 T00500044
KCVG 180752Z 19006KT 4SM BR OVC004 05/05 A3009 RMK AO2 DZE45 SLP192 P0000 T00500050
KCVG 180852Z 20005KT 1/8SM R18C/P6000FT BR OVC002 04/04 A3008 RMK AO2 SFC VIS 1 1/2 SLP188 60000 T00440044 57004
KCVG 180952Z 19005KT 1/8SM R18C/P6000FT BR OVC002 05/05 A3007 RMK AO2 SFC VIS 2 1/2 SLP184 T00500050
KCVG 181052Z 20007KT 1SM R18C/P6000FT BR OVC003 05/05 A3007 RMK AO2 SFC VIS 4 SLP183 T00500050
KCVG 181152Z COR 22007KT 1SM R18C/P6000FT -RA BR OVC003 06/06 A3008 RMK AO2 SFC VIS 2 SLP188 DZB14E35RB35 PCPN LGT P0001 60001 70001 T00560056 10056 20044 55000
KCVG 181252Z 21008KT 1/2SM R18C/P6000FT -DZ BR OVC003 06/06 A3007 RMK AO2 SFC VIS 1 1/4 DZB28 SLP186 P0000 T00560056
KCVG 181352Z 22006KT 1/8SM R18C/P6000FT -DZ BR OVC003 06/06 A3009 RMK AO2 SFC VIS 1 SLP190 INTMT -DZ P0000 T00610061
KCVG 181456Z 21007KT 1SM R18C/P6000FT BR OVC004 06/06 A3010 RMK AO2 SFC VIS 1 3/4 T00610061
KCVG 181602Z 22007KT 2SM BR OVC006 07/07 A3010 RMK AO2 SFC VIS 3 T00670067